Time;durP1;ratioP1;P1;durP2;ratioP2;P2;SDS_P1;SDS_P2;PMS_P1;PMS_P2;Temp;Humidity;BMP_temperature;BMP_pressure;BME280_temperature;BME280_humidity;BME280_pressure;Samples;Min_cycle;Max_cycle;Signal;HPM_P1;HPM_P2
2022/10/08 00:00:18;;;;;;;;;;;13.30;99.90;;;;;;7341046;19;109526;-79
2022/10/08 00:02:45;;;;;;;;;;;13.30;99.90;;;;;;7335045;19;108885;-78
2022/10/08 00:05:12;;;;;;;;;;;13.30;99.90;;;;;;7336014;19;108555;-79
2022/10/08 00:07:41;;;;;;;;;;;13.40;99.90;;;;;;7337336;19;109174;-79
2022/10/08 00:10:08;;;;;;;;;;;13.40;99.90;;;;;;7335062;19;110475;-78
2022/10/08 00:12:36;;;;;;;;;;;13.40;99.90;;;;;;7335407;19;109123;-78
2022/10/08 00:15:03;;;;;;;;;;;13.40;99.90;;;;;;7336103;19;109918;-78
2022/10/08 00:17:30;;;;;;;;;;;13.50;99.90;;;;;;7332995;19;109472;-77
2022/10/08 00:19:56;;;;;;;;;;;13.50;99.90;;;;;;7336518;19;108383;-78
2022/10/08 00:22:24;;;;;;;;;;;13.50;99.90;;;;;;7339206;19;108972;-78
2022/10/08 00:24:52;;;;;;;;;;;13.50;99.90;;;;;;7336112;19;108473;-78
2022/10/08 00:27:22;;;;;;;;;;;13.60;99.90;;;;;;7332776;19;109660;-78
2022/10/08 00:29:51;;;;;;;;;;;13.60;99.90;;;;;;7328663;19;110295;-78
2022/10/08 00:32:18;;;;;;;;;;;13.60;99.90;;;;;;7334681;19;108477;-77
2022/10/08 00:34:46;;;;;;;;;;;13.60;99.90;;;;;;7332530;19;109255;-79
2022/10/08 00:37:14;;;;;;;;;;;13.70;99.90;;;;;;7326611;19;115617;-78
2022/10/08 00:39:41;;;;;;;;;;;13.70;99.90;;;;;;7335106;19;109165;-78
2022/10/08 00:42:10;;;;;;;;;;;13.70;99.90;;;;;;7334309;19;109565;-78
2022/10/08 00:44:45;;;;;;;;;;;13.80;99.90;;;;;;7341379;19;109355;-78
2022/10/08 00:47:15;;;;;;;;;;;13.80;99.90;;;;;;7332341;19;108646;-78
2022/10/08 00:49:42;;;;;;;;;;;13.80;99.90;;;;;;7325035;19;110345;-81
2022/10/08 00:52:09;;;;;;;;;;;13.90;99.90;;;;;;7335434;19;108957;-81
2022/10/08 00:54:36;;;;;;;;;;;14.10;99.90;;;;;;7334441;19;109293;-82
2022/10/08 00:57:05;;;;;;;;;;;14.40;99.90;;;;;;7332212;19;113404;-82
2022/10/08 00:59:32;;;;;;;;;;;14.60;99.90;;;;;;7331750;19;109019;-82
2022/10/08 01:01:59;;;;;;;;;;;14.80;99.90;;;;;;7334055;19;108532;-82
2022/10/08 01:04:26;;;;;;;;;;;15.00;99.90;;;;;;7334770;19;109734;-81
2022/10/08 01:06:53;;;;;;;;;;;15.10;99.90;;;;;;7331378;19;111901;-82
2022/10/08 01:09:26;;;;;;;;;;;15.20;99.90;;;;;;7332588;19;110657;-81
2022/10/08 01:12:02;;;;;;;;;;;15.30;99.90;;;;;;7330856;19;110649;-79
2022/10/08 01:14:29;;;;;;;;;;;15.40;99.90;;;;;;7330699;19;109739;-82
2022/10/08 01:16:56;;;;;;;;;;;15.50;99.90;;;;;;7335180;19;109889;-81
2022/10/08 01:19:46;;;;;;;;;;;15.50;99.90;;;;;;7329933;19;113568;-81
2022/10/08 01:22:13;;;;;;;;;;;15.60;99.90;;;;;;7329715;19;109703;-81
2022/10/08 01:27:40;;;;;;;;;;;15.70;99.90;;;;;;7338137;19;108922;-81
2022/10/08 01:30:15;;;;;;;;;;;15.70;99.90;;;;;;7327484;19;110406;-79
2022/10/08 01:32:43;;;;;;;;;;;15.70;99.90;;;;;;7332085;19;108235;-80
2022/10/08 01:35:14;;;;;;;;;;;15.70;99.90;;;;;;7332411;19;110603;-79
2022/10/08 01:37:42;;;;;;;;;;;15.70;99.90;;;;;;7331966;19;111822;-80
2022/10/08 01:40:12;;;;;;;;;;;15.70;99.90;;;;;;7328114;19;109402;-79
2022/10/08 01:42:39;;;;;;;;;;;15.70;99.90;;;;;;7334731;19;110698;-80
2022/10/08 01:45:09;;;;;;;;;;;15.70;99.90;;;;;;7331346;19;110247;-78
2022/10/08 01:47:38;;;;;;;;;;;15.70;99.90;;;;;;7333025;19;108348;-79
2022/10/08 01:50:14;;;;;;;;;;;15.70;99.90;;;;;;7338867;19;109022;-79
2022/10/08 01:52:44;;;;;;;;;;;15.50;99.90;;;;;;7333015;19;108678;-78
2022/10/08 01:55:18;;;;;;;;;;;15.50;99.90;;;;;;7331319;19;109123;-78
2022/10/08 01:57:46;;;;;;;;;;;15.50;99.90;;;;;;7331884;19;114091;-78
2022/10/08 02:00:14;;;;;;;;;;;15.60;99.90;;;;;;7331009;19;109525;-79
2022/10/08 02:02:41;;;;;;;;;;;15.70;99.90;;;;;;7332158;19;108586;-79
2022/10/08 02:05:10;;;;;;;;;;;15.70;99.90;;;;;;7330824;19;110641;-78
2022/10/08 02:07:38;;;;;;;;;;;15.70;99.90;;;;;;7331999;19;108710;-78
2022/10/08 02:10:05;;;;;;;;;;;15.60;99.90;;;;;;7331616;19;109309;-78
2022/10/08 02:12:34;;;;;;;;;;;15.50;99.90;;;;;;7336708;19;110416;-78
2022/10/08 02:15:03;;;;;;;;;;;15.50;99.90;;;;;;7332625;19;110847;-78
2022/10/08 02:17:30;;;;;;;;;;;15.50;99.90;;;;;;7330414;19;110391;-78
2022/10/08 02:20:06;;;;;;;;;;;15.60;99.90;;;;;;7337495;19;108665;-78
2022/10/08 02:22:39;;;;;;;;;;;15.60;99.90;;;;;;7339223;19;110221;-78
2022/10/08 02:25:12;;;;;;;;;;;15.50;99.90;;;;;;7336750;19;112820;-78
2022/10/08 02:27:50;;;;;;;;;;;15.60;99.90;;;;;;7340678;19;109122;-78
2022/10/08 02:30:17;;;;;;;;;;;15.60;99.90;;;;;;7337647;19;109955;-78
2022/10/08 02:32:44;;;;;;;;;;;15.70;99.90;;;;;;7339484;19;110659;-77
2022/10/08 02:35:24;;;;;;;;;;;15.70;99.90;;;;;;7342315;19;109181;-78
2022/10/08 02:37:56;;;;;;;;;;;15.70;99.90;;;;;;7339877;19;109730;-78
2022/10/08 02:40:24;;;;;;;;;;;15.70;99.90;;;;;;7336383;19;108863;-78
2022/10/08 02:42:54;;;;;;;;;;;15.70;99.90;;;;;;7340454;19;110241;-77
2022/10/08 02:45:23;;;;;;;;;;;15.70;99.90;;;;;;7337654;19;109315;-78
2022/10/08 02:47:53;;;;;;;;;;;15.70;99.90;;;;;;7339055;19;108381;-77
2022/10/08 02:50:23;;;;;;;;;;;15.70;99.90;;;;;;7337552;19;109795;-78
2022/10/08 02:52:50;;;;;;;;;;;15.70;99.90;;;;;;7337459;19;110316;-77
2022/10/08 02:55:22;;;;;;;;;;;15.70;99.90;;;;;;7337879;19;108465;-78
2022/10/08 02:57:54;;;;;;;;;;;15.70;99.90;;;;;;7344287;19;109876;-78
2022/10/08 03:00:21;;;;;;;;;;;15.70;99.90;;;;;;7337109;19;108933;-78
2022/10/08 03:02:55;;;;;;;;;;;15.70;99.90;;;;;;7338129;19;111933;-78
2022/10/08 03:05:22;;;;;;;;;;;15.70;99.90;;;;;;7339620;19;110415;-78
2022/10/08 03:07:50;;;;;;;;;;;15.70;99.90;;;;;;7336867;19;109062;-78
2022/10/08 03:10:18;;;;;;;;;;;15.70;99.90;;;;;;7335988;19;111529;-78
2022/10/08 03:12:45;;;;;;;;;;;15.70;99.90;;;;;;7337420;19;110105;-78
2022/10/08 03:15:13;;;;;;;;;;;15.60;99.90;;;;;;7335013;19;110088;-78
2022/10/08 03:17:42;;;;;;;;;;;15.60;99.90;;;;;;7342614;19;109139;-78
2022/10/08 03:20:10;;;;;;;;;;;15.50;99.90;;;;;;7335914;19;109060;-77
2022/10/08 03:22:37;;;;;;;;;;;15.50;99.90;;;;;;7334722;19;111776;-77
2022/10/08 03:25:04;;;;;;;;;;;15.50;99.90;;;;;;7339235;19;111639;-77
2022/10/08 03:27:33;;;;;;;;;;;15.50;99.90;;;;;;7336572;19;109331;-77
2022/10/08 03:30:01;;;;;;;;;;;15.50;99.90;;;;;;7334670;19;108656;-77
2022/10/08 03:32:28;;;;;;;;;;;15.50;99.90;;;;;;7335978;19;114042;-78
2022/10/08 03:34:55;;;;;;;;;;;15.50;99.90;;;;;;7338653;19;109752;-77
2022/10/08 03:37:22;;;;;;;;;;;15.40;99.90;;;;;;7334569;19;108662;-79
2022/10/08 03:39:51;;;;;;;;;;;15.40;99.90;;;;;;7340471;19;111473;-77
2022/10/08 03:42:17;;;;;;;;;;;15.40;99.90;;;;;;7337890;19;109294;-78
2022/10/08 03:44:44;;;;;;;;;;;15.30;99.90;;;;;;7334963;19;110285;-77
2022/10/08 03:47:11;;;;;;;;;;;15.30;99.90;;;;;;7336124;19;109116;-77
2022/10/08 03:49:40;;;;;;;;;;;15.30;99.90;;;;;;7337014;19;108837;-77
2022/10/08 03:52:07;;;;;;;;;;;15.20;99.90;;;;;;7338127;19;113872;-77
2022/10/08 03:54:37;;;;;;;;;;;15.20;99.90;;;;;;7334237;19;110170;-77
2022/10/08 03:57:04;;;;;;;;;;;15.10;99.90;;;;;;7336946;19;111199;-77
2022/10/08 03:59:31;;;;;;;;;;;15.10;99.90;;;;;;7335323;19;111168;-77
2022/10/08 04:01:58;;;;;;;;;;;15.00;99.90;;;;;;7341961;19;109374;-77
2022/10/08 04:04:25;;;;;;;;;;;15.00;99.90;;;;;;7332277;19;109291;-77
2022/10/08 04:06:51;;;;;;;;;;;14.90;99.90;;;;;;7333719;19;108805;-77
2022/10/08 04:09:19;;;;;;;;;;;14.90;99.90;;;;;;7333017;19;109809;-78
2022/10/08 04:11:46;;;;;;;;;;;14.80;99.90;;;;;;7334899;19;109582;-78
2022/10/08 04:14:14;;;;;;;;;;;14.80;99.90;;;;;;7333866;19;109568;-78
2022/10/08 04:16:41;;;;;;;;;;;14.70;99.90;;;;;;7337203;19;109855;-78
2022/10/08 04:19:09;;;;;;;;;;;14.60;99.90;;;;;;7334189;19;112272;-78
2022/10/08 04:21:36;;;;;;;;;;;14.60;99.90;;;;;;7335070;19;109095;-78
2022/10/08 04:24:03;;;;;;;;;;;14.50;99.90;;;;;;7341819;19;113187;-77
2022/10/08 04:26:33;;;;;;;;;;;14.40;99.90;;;;;;7333440;19;109311;-78
2022/10/08 04:29:00;;;;;;;;;;;14.30;99.90;;;;;;7335395;19;109057;-78
2022/10/08 04:31:27;;;;;;;;;;;14.30;99.90;;;;;;7336051;19;111098;-78
2022/10/08 04:33:54;;;;;;;;;;;14.20;99.90;;;;;;7336401;19;109245;-78
2022/10/08 04:36:22;;;;;;;;;;;14.20;99.90;;;;;;7337087;19;108560;-78
2022/10/08 04:38:49;;;;;;;;;;;14.20;99.90;;;;;;7334393;19;110170;-78
2022/10/08 04:41:23;;;;;;;;;;;14.10;99.90;;;;;;7334433;19;109747;-78
2022/10/08 04:43:52;;;;;;;;;;;14.00;99.90;;;;;;7336937;19;108931;-78
2022/10/08 04:46:19;;;;;;;;;;;14.00;99.90;;;;;;7340225;19;110685;-78
2022/10/08 04:48:48;;;;;;;;;;;14.00;99.90;;;;;;7337067;19;109059;-78
2022/10/08 04:51:15;;;;;;;;;;;13.90;99.90;;;;;;7333019;19;109516;-78
2022/10/08 04:53:42;;;;;;;;;;;13.90;99.90;;;;;;7333567;19;110283;-78
2022/10/08 04:56:20;;;;;;;;;;;13.90;99.90;;;;;;7330991;19;108366;-78
2022/10/08 04:58:47;;;;;;;;;;;13.90;99.90;;;;;;7333257;19;110256;-78
2022/10/08 05:01:15;;;;;;;;;;;13.90;99.90;;;;;;7329959;19;109478;-78
2022/10/08 05:03:43;;;;;;;;;;;13.80;99.90;;;;;;7335017;19;109160;-78
2022/10/08 05:06:10;;;;;;;;;;;13.80;99.90;;;;;;7329761;19;110922;-78
2022/10/08 05:08:37;;;;;;;;;;;13.70;99.90;;;;;;7337670;19;109447;-78
2022/10/08 05:11:04;;;;;;;;;;;13.70;99.90;;;;;;7334072;19;111273;-78
2022/10/08 05:13:32;;;;;;;;;;;13.70;99.90;;;;;;7333946;19;108801;-78
2022/10/08 05:16:17;;;;;;;;;;;13.60;99.90;;;;;;7332313;19;109206;-79
2022/10/08 05:18:46;;;;;;;;;;;13.60;99.90;;;;;;7330173;19;112258;-78
2022/10/08 05:21:14;;;;;;;;;;;13.60;99.90;;;;;;7334490;19;108754;-78
2022/10/08 05:23:41;;;;;;;;;;;13.60;99.90;;;;;;7335609;19;109785;-78
2022/10/08 05:26:11;;;;;;;;;;;13.60;99.90;;;;;;7330024;19;110627;-78
2022/10/08 05:28:38;;;;;;;;;;;13.60;99.90;;;;;;7341295;19;108882;-78
2022/10/08 05:31:06;;;;;;;;;;;13.60;99.90;;;;;;7334446;19;110528;-79
2022/10/08 05:33:35;;;;;;;;;;;13.50;99.90;;;;;;7331918;19;108903;-79
2022/10/08 05:36:04;;;;;;;;;;;13.40;99.90;;;;;;7333735;19;109548;-78
2022/10/08 05:38:31;;;;;;;;;;;13.40;99.90;;;;;;7330844;19;109556;-78
2022/10/08 05:41:08;;;;;;;;;;;13.30;99.90;;;;;;7333635;19;108492;-78
2022/10/08 05:43:35;;;;;;;;;;;13.30;99.90;;;;;;7332463;19;113094;-79
2022/10/08 05:46:02;;;;;;;;;;;13.20;99.90;;;;;;7332937;19;110266;-78
2022/10/08 05:48:29;;;;;;;;;;;13.20;99.90;;;;;;7333104;19;108736;-79
2022/10/08 05:51:01;;;;;;;;;;;13.20;99.90;;;;;;7335140;19;109286;-78
2022/10/08 05:53:28;;;;;;;;;;;13.10;99.90;;;;;;7336957;19;110559;-79
2022/10/08 05:56:02;;;;;;;;;;;13.10;99.90;;;;;;7340153;19;110350;-79
2022/10/08 05:58:33;;;;;;;;;;;13.10;99.90;;;;;;7335728;19;110598;-79
2022/10/08 06:01:02;;;;;;;;;;;13.00;99.90;;;;;;7338093;19;108424;-79
2022/10/08 06:03:29;;;;;;;;;;;13.00;99.90;;;;;;7337547;19;109264;-78
2022/10/08 06:06:00;;;;;;;;;;;13.00;99.90;;;;;;7337781;19;110316;-79
2022/10/08 06:08:28;;;;;;;;;;;13.00;99.90;;;;;;7337875;19;112105;-78
2022/10/08 06:10:55;;;;;;;;;;;12.90;99.90;;;;;;7338025;19;112780;-79
2022/10/08 06:13:22;;;;;;;;;;;12.90;99.90;;;;;;7344908;19;113645;-79
2022/10/08 06:15:55;;;;;;;;;;;12.90;99.90;;;;;;7340678;19;109530;-78
2022/10/08 06:18:22;;;;;;;;;;;12.90;99.90;;;;;;7341747;19;110161;-78
2022/10/08 06:20:50;;;;;;;;;;;12.90;99.90;;;;;;7338686;19;109562;-79
2022/10/08 06:23:17;;;;;;;;;;;13.00;99.90;;;;;;7339854;19;109478;-79
2022/10/08 06:25:44;;;;;;;;;;;13.00;99.90;;;;;;7339206;19;113707;-79
2022/10/08 06:28:11;;;;;;;;;;;12.90;99.90;;;;;;7338240;19;109490;-79
2022/10/08 06:30:38;;;;;;;;;;;13.00;99.90;;;;;;7337111;19;110651;-79
2022/10/08 06:33:05;;;;;;;;;;;13.00;99.90;;;;;;7340481;19;112989;-78
2022/10/08 06:35:32;;;;;;;;;;;13.00;99.90;;;;;;7346024;19;109386;-79
2022/10/08 06:37:59;;;;;;;;;;;13.00;99.90;;;;;;7338575;19;109930;-78
2022/10/08 06:40:26;;;;;;;;;;;13.10;99.90;;;;;;7337385;19;109456;-79
2022/10/08 06:42:53;;;;;;;;;;;13.10;99.90;;;;;;7337901;19;115751;-79
2022/10/08 06:45:22;;;;;;;;;;;13.10;99.90;;;;;;7333535;19;113204;-79
2022/10/08 06:47:49;;;;;;;;;;;13.20;99.90;;;;;;7338426;19;108998;-79
2022/10/08 06:50:16;;;;;;;;;;;13.20;99.90;;;;;;7335848;19;109592;-79
2022/10/08 06:52:44;;;;;;;;;;;13.20;99.90;;;;;;7338516;19;111991;-79
2022/10/08 06:55:11;;;;;;;;;;;13.30;99.90;;;;;;7334580;19;108809;-79
2022/10/08 06:57:38;;;;;;;;;;;13.30;99.90;;;;;;7343470;19;109418;-80
2022/10/08 07:00:05;;;;;;;;;;;13.40;99.90;;;;;;7336518;19;109025;-81
2022/10/08 07:02:32;;;;;;;;;;;13.40;99.90;;;;;;7334341;19;109654;-81
2022/10/08 07:05:00;;;;;;;;;;;13.40;99.90;;;;;;7331272;19;113885;-81
2022/10/08 07:07:27;;;;;;;;;;;13.50;99.90;;;;;;7336946;19;108357;-80
2022/10/08 07:09:54;;;;;;;;;;;13.50;99.90;;;;;;7335864;19;109617;-80
2022/10/08 07:12:20;;;;;;;;;;;13.50;99.90;;;;;;7335894;19;110120;-79
2022/10/08 07:14:47;;;;;;;;;;;13.60;99.90;;;;;;7337589;19;109447;-79
2022/10/08 07:17:14;;;;;;;;;;;13.60;99.90;;;;;;7341552;19;108615;-79
2022/10/08 07:19:42;;;;;;;;;;;13.60;99.90;;;;;;7341112;19;108558;-79
2022/10/08 07:22:08;;;;;;;;;;;13.60;99.90;;;;;;7338176;19;109628;-79
2022/10/08 07:24:35;;;;;;;;;;;13.70;99.90;;;;;;7335877;19;112640;-79
2022/10/08 07:27:02;;;;;;;;;;;13.80;99.90;;;;;;7336927;19;109227;-79
2022/10/08 07:29:30;;;;;;;;;;;13.80;99.90;;;;;;7336505;19;111474;-80
2022/10/08 07:31:57;;;;;;;;;;;13.90;99.90;;;;;;7335002;19;111108;-79
2022/10/08 07:34:24;;;;;;;;;;;13.90;99.90;;;;;;7335816;19;109094;-79
2022/10/08 07:36:51;;;;;;;;;;;13.90;99.90;;;;;;7338069;19;109176;-79
2022/10/08 07:39:18;;;;;;;;;;;14.00;99.90;;;;;;7338838;19;110260;-79
2022/10/08 07:41:46;;;;;;;;;;;14.00;99.90;;;;;;7337421;19;109117;-79
2022/10/08 07:44:14;;;;;;;;;;;14.10;99.90;;;;;;7335250;19;110590;-79
2022/10/08 07:46:42;;;;;;;;;;;14.20;99.90;;;;;;7336957;19;109232;-79
2022/10/08 07:49:09;;;;;;;;;;;14.20;99.90;;;;;;7336236;19;109724;-81
2022/10/08 07:51:36;;;;;;;;;;;14.30;99.90;;;;;;7336685;19;110180;-80
2022/10/08 07:54:04;;;;;;;;;;;14.30;99.90;;;;;;7335882;19;108932;-81
2022/10/08 07:56:31;;;;;;;;;;;14.30;99.90;;;;;;7335333;19;109763;-79
2022/10/08 07:58:59;;;;;;;;;;;14.40;99.90;;;;;;7333805;19;113660;-80
2022/10/08 08:01:28;;;;;;;;;;;14.40;99.90;;;;;;7338706;19;108950;-80
2022/10/08 08:03:58;;;;;;;;;;;14.40;99.90;;;;;;7332193;19;110308;-80
2022/10/08 08:06:25;;;;;;;;;;;14.40;99.90;;;;;;7335006;19;108860;-80
2022/10/08 08:08:52;;;;;;;;;;;14.40;99.90;;;;;;7336008;19;109915;-80
2022/10/08 08:11:20;;;;;;;;;;;14.50;99.90;;;;;;7329273;19;111532;-79
2022/10/08 08:13:47;;;;;;;;;;;14.60;99.90;;;;;;7330951;19;111146;-80
2022/10/08 08:16:24;;;;;;;;;;;14.70;99.90;;;;;;7339837;19;109246;-80
2022/10/08 08:18:52;;;;;;;;;;;14.80;99.90;;;;;;7340294;19;110419;-80
2022/10/08 08:21:21;;;;;;;;;;;14.80;99.90;;;;;;7336865;19;108720;-79
2022/10/08 08:23:49;;;;;;;;;;;14.90;99.90;;;;;;7342411;19;109834;-80
2022/10/08 08:26:16;;;;;;;;;;;14.90;99.90;;;;;;7337463;19;108759;-82
2022/10/08 08:28:44;;;;;;;;;;;15.00;99.90;;;;;;7336293;19;109193;-79
2022/10/08 08:31:13;;;;;;;;;;;15.10;99.90;;;;;;7331403;19;110643;-78
2022/10/08 08:33:41;;;;;;;;;;;15.10;99.90;;;;;;7337226;19;109728;-81
2022/10/08 08:36:08;;;;;;;;;;;15.20;99.90;;;;;;7334172;19;112083;-79
2022/10/08 08:38:36;;;;;;;;;;;15.20;99.90;;;;;;7333836;19;109865;-78
2022/10/08 08:41:20;;;;;;;;;;;15.20;99.90;;;;;;7336315;19;109230;-81
2022/10/08 08:43:47;;;;;;;;;;;15.30;99.90;;;;;;7337111;19;109992;-78
2022/10/08 08:46:17;;;;;;;;;;;15.40;99.90;;;;;;7338249;19;110568;-80
2022/10/08 08:48:44;;;;;;;;;;;15.40;99.90;;;;;;7333171;19;109200;-79
2022/10/08 08:51:11;;;;;;;;;;;15.40;99.90;;;;;;7333712;19;110613;-79
2022/10/08 08:53:38;;;;;;;;;;;15.50;99.90;;;;;;7334517;19;110547;-79
2022/10/08 08:56:07;;;;;;;;;;;15.60;99.90;;;;;;7333261;19;109406;-78
2022/10/08 08:58:37;;;;;;;;;;;15.60;99.90;;;;;;7334484;19;113513;-78
2022/10/08 09:01:07;;;;;;;;;;;15.70;99.90;;;;;;7332336;19;109331;-78
2022/10/08 09:03:42;;;;;;;;;;;15.80;99.90;;;;;;7330452;19;108863;-79
2022/10/08 09:06:13;;;;;;;;;;;15.90;99.90;;;;;;7330772;19;110453;-79
2022/10/08 09:08:42;;;;;;;;;;;15.90;99.90;;;;;;7341871;19;108927;-79
2022/10/08 09:11:12;;;;;;;;;;;15.90;99.90;;;;;;7330010;19;112762;-79
2022/10/08 09:13:48;;;;;;;;;;;15.80;99.90;;;;;;7332457;19;108762;-79
2022/10/08 09:16:15;;;;;;;;;;;15.80;99.90;;;;;;7330495;19;108521;-80
2022/10/08 09:18:44;;;;;;;;;;;15.90;99.90;;;;;;7336558;19;110059;-80
2022/10/08 09:21:11;;;;;;;;;;;15.90;99.90;;;;;;7339880;19;108834;-81
2022/10/08 09:23:38;;;;;;;;;;;15.90;99.90;;;;;;7337531;19;109583;-79
2022/10/08 09:26:17;;;;;;;;;;;15.90;99.90;;;;;;7337449;19;109159;-78
2022/10/08 09:28:45;;;;;;;;;;;15.90;99.90;;;;;;7344338;19;108295;-79
2022/10/08 09:31:35;;;;;;;;;;;15.90;99.90;;;;;;7338380;19;110207;-79
2022/10/08 09:34:04;;;;;;;;;;;15.90;99.90;;;;;;7337022;19;108607;-79
2022/10/08 09:36:31;;;;;;;;;;;16.10;99.90;;;;;;7336697;19;109218;-80
2022/10/08 09:38:59;;;;;;;;;;;16.30;99.90;;;;;;7337136;19;112357;-79
2022/10/08 09:41:27;;;;;;;;;;;16.40;99.90;;;;;;7336650;19;108942;-79
2022/10/08 09:44:07;;;;;;;;;;;16.40;99.90;;;;;;7338037;19;108769;-77
2022/10/08 09:46:34;;;;;;;;;;;16.40;99.90;;;;;;7335428;19;112827;-79
2022/10/08 09:49:20;;;;;;;;;;;16.50;99.90;;;;;;7338042;19;108539;-77
2022/10/08 09:51:49;;;;;;;;;;;16.60;99.90;;;;;;7341283;19;109315;-75
2022/10/08 09:54:19;;;;;;;;;;;16.80;99.90;;;;;;7332082;19;108964;-77
2022/10/08 09:56:51;;;;;;;;;;;16.70;99.90;;;;;;7336503;19;108978;-77
2022/10/08 09:59:19;;;;;;;;;;;16.70;99.90;;;;;;7334772;19;110475;-77
2022/10/08 10:01:47;;;;;;;;;;;16.80;99.90;;;;;;7336448;19;108450;-76
2022/10/08 10:04:18;;;;;;;;;;;16.80;99.90;;;;;;7334810;19;109084;-77
2022/10/08 10:06:47;;;;;;;;;;;16.70;99.90;;;;;;7338554;19;110537;-75
2022/10/08 10:09:20;;;;;;;;;;;16.60;99.90;;;;;;7335098;19;109536;-77
2022/10/08 10:11:53;;;;;;;;;;;16.50;99.90;;;;;;7337551;19;108579;-79
2022/10/08 10:14:38;;;;;;;;;;;16.40;99.90;;;;;;7340732;19;110302;-78
2022/10/08 10:17:28;;;;;;;;;;;16.40;99.90;;;;;;7338769;19;109324;-75
2022/10/08 10:20:00;;;;;;;;;;;16.30;99.90;;;;;;7333712;19;110661;-77
2022/10/08 10:22:46;;;;;;;;;;;16.40;99.90;;;;;;7330992;19;108694;-78
2022/10/08 10:25:23;;;;;;;;;;;16.40;99.90;;;;;;7330893;19;112763;-76
2022/10/08 10:27:52;;;;;;;;;;;16.40;99.90;;;;;;7332479;19;110594;-76
2022/10/08 10:30:20;;;;;;;;;;;16.30;99.90;;;;;;7330917;19;109612;-77
2022/10/08 10:32:50;;;;;;;;;;;16.20;99.90;;;;;;7332570;19;109305;-77
2022/10/08 10:35:24;;;;;;;;;;;16.20;99.90;;;;;;7330141;19;110655;-77
2022/10/08 10:38:02;;;;;;;;;;;16.20;99.90;;;;;;7338189;19;108795;-76
2022/10/08 10:40:31;;;;;;;;;;;16.20;99.90;;;;;;7333130;19;110433;-76
2022/10/08 10:43:22;;;;;;;;;;;16.10;99.90;;;;;;7337574;19;108514;-77
2022/10/08 10:45:52;;;;;;;;;;;16.10;99.90;;;;;;7339341;19;110811;-77
2022/10/08 10:48:19;;;;;;;;;;;16.20;99.90;;;;;;7338425;19;109291;-75
2022/10/08 10:50:56;;;;;;;;;;;16.40;99.90;;;;;;7339584;19;108858;-77
2022/10/08 10:53:41;;;;;;;;;;;16.60;99.90;;;;;;7337816;19;111293;-78
2022/10/08 10:56:14;;;;;;;;;;;16.70;99.90;;;;;;7336683;19;111130;-77
2022/10/08 10:59:00;;;;;;;;;;;16.90;99.90;;;;;;7340351;19;108958;-77
2022/10/08 11:01:44;;;;;;;;;;;17.10;99.90;;;;;;7345340;19;108839;-76
2022/10/08 11:04:20;;;;;;;;;;;17.20;99.90;;;;;;7342611;19;108411;-76
2022/10/08 11:07:05;;;;;;;;;;;17.20;99.90;;;;;;7340199;19;108906;-74
2022/10/08 11:09:51;;;;;;;;;;;17.40;99.90;;;;;;7339868;19;113248;-79
2022/10/08 11:12:33;;;;;;;;;;;17.50;99.90;;;;;;7339445;19;109039;-74
2022/10/08 11:15:07;;;;;;;;;;;17.60;99.90;;;;;;7338265;19;108839;-79
2022/10/08 11:17:49;;;;;;;;;;;17.80;99.90;;;;;;7340469;19;110767;-81
2022/10/08 11:20:18;;;;;;;;;;;17.90;99.90;;;;;;7340466;19;108768;-77
2022/10/08 11:22:48;;;;;;;;;;;18.00;99.90;;;;;;7339513;19;109942;-72
2022/10/08 11:25:31;;;;;;;;;;;18.10;99.90;;;;;;7345366;19;110391;-73
2022/10/08 11:28:30;;;;;;;;;;;18.20;99.90;;;;;;7341016;19;113091;-72
2022/10/08 11:31:10;;;;;;;;;;;18.30;99.90;;;;;;7337571;19;110227;-73
2022/10/08 11:33:37;;;;;;;;;;;18.50;99.90;;;;;;7342102;19;108519;-73
2022/10/08 11:36:14;;;;;;;;;;;18.50;99.90;;;;;;7340212;19;109620;-73
2022/10/08 11:38:41;;;;;;;;;;;18.60;99.90;;;;;;7338341;19;110269;-73
2022/10/08 11:41:15;;;;;;;;;;;18.50;99.90;;;;;;7343061;19;111738;-72
2022/10/08 11:43:53;;;;;;;;;;;18.50;99.90;;;;;;7341139;19;109095;-74
2022/10/08 11:46:27;;;;;;;;;;;18.40;99.90;;;;;;7344098;19;111053;-74
2022/10/08 11:48:55;;;;;;;;;;;18.40;99.90;;;;;;7342046;19;109820;-72
2022/10/08 11:51:22;;;;;;;;;;;18.50;99.90;;;;;;7341226;19;109494;-71
2022/10/08 11:54:11;;;;;;;;;;;18.60;99.90;;;;;;7341014;19;108493;-72
2022/10/08 11:56:40;;;;;;;;;;;18.70;99.90;;;;;;7339692;19;110830;-73
2022/10/08 11:59:27;;;;;;;;;;;18.80;99.90;;;;;;7340583;19;113178;-72
2022/10/08 12:01:58;;;;;;;;;;;18.90;99.90;;;;;;7338366;19;108426;-71
2022/10/08 12:04:31;;;;;;;;;;;19.00;99.90;;;;;;7340085;19;108623;-71
2022/10/08 12:07:00;;;;;;;;;;;19.10;99.90;;;;;;7337354;19;110039;-72
2022/10/08 12:09:47;;;;;;;;;;;19.20;99.90;;;;;;7344232;19;108947;-71
2022/10/08 12:14:44;;;;;;;;;;;19.50;99.90;;;;;;7332317;19;109321;-72
2022/10/08 12:17:11;;;;;;;;;;;19.40;99.60;;;;;;7337607;19;110190;-72
2022/10/08 12:19:40;;;;;;;;;;;19.30;99.50;;;;;;7334864;19;110394;-72
2022/10/08 12:22:13;;;;;;;;;;;19.20;98.60;;;;;;7337405;19;109227;-73
2022/10/08 12:24:42;;;;;;;;;;;19.20;99.70;;;;;;7336071;19;109271;-72
2022/10/08 12:27:15;;;;;;;;;;;19.30;99.90;;;;;;7335651;19;109488;-71
2022/10/08 12:29:52;;;;;;;;;;;19.30;99.50;;;;;;7336646;19;109975;-72
2022/10/08 12:32:19;;;;;;;;;;;19.30;99.30;;;;;;7341883;19;109925;-72
2022/10/08 12:34:45;;;;;;;;;;;19.10;99.20;;;;;;7339638;19;108575;-71
2022/10/08 12:37:25;;;;;;;;;;;19.10;99.90;;;;;;7339019;19;109247;-72
2022/10/08 12:39:53;;;;;;;;;;;19.00;99.40;;;;;;7341480;19;109693;-72
2022/10/08 12:42:26;;;;;;;;;;;18.90;99.90;;;;;;7338079;19;108985;-73
2022/10/08 12:45:11;;;;;;;;;;;18.80;99.90;;;;;;7336869;19;109420;-72
2022/10/08 12:47:51;;;;;;;;;;;18.80;99.90;;;;;;7333535;19;109986;-74
2022/10/08 12:50:30;;;;;;;;;;;18.80;99.90;;;;;;7334905;19;109091;-72
2022/10/08 12:52:58;;;;;;;;;;;18.90;99.90;;;;;;7335624;19;109751;-72
2022/10/08 12:55:25;;;;;;;;;;;18.90;99.90;;;;;;7341508;19;110241;-72
2022/10/08 12:57:52;;;;;;;;;;;18.90;99.50;;;;;;7338309;19;108788;-74
2022/10/08 13:00:19;;;;;;;;;;;18.80;99.90;;;;;;7336083;19;111112;-72
2022/10/08 13:02:59;;;;;;;;;;;18.90;99.90;;;;;;7336772;19;108862;-72
2022/10/08 13:05:28;;;;;;;;;;;19.00;99.40;;;;;;7334915;19;109105;-74
2022/10/08 13:07:56;;;;;;;;;;;19.00;99.40;;;;;;7339355;19;110211;-74
2022/10/08 13:10:27;;;;;;;;;;;19.00;99.20;;;;;;7329939;19;108370;-73
2022/10/08 13:12:57;;;;;;;;;;;19.00;99.30;;;;;;7333153;19;109278;-74
2022/10/08 13:15:25;;;;;;;;;;;19.00;99.10;;;;;;7333095;19;110421;-76
2022/10/08 13:17:52;;;;;;;;;;;19.00;99.90;;;;;;7340527;19;108831;-73
2022/10/08 13:20:21;;;;;;;;;;;19.00;99.30;;;;;;7328009;19;110268;-74
2022/10/08 13:22:48;;;;;;;;;;;19.00;99.10;;;;;;7333633;19;108934;-72
2022/10/08 13:25:30;;;;;;;;;;;19.20;98.60;;;;;;7333835;19;109260;-73
2022/10/08 13:28:09;;;;;;;;;;;19.30;98.80;;;;;;7334274;19;110300;-74
2022/10/08 13:30:37;;;;;;;;;;;19.50;98.60;;;;;;7335003;19;109665;-74
2022/10/08 13:33:16;;;;;;;;;;;19.80;98.60;;;;;;7335589;19;109299;-74
2022/10/08 13:35:43;;;;;;;;;;;19.90;98.30;;;;;;7332168;19;110659;-73
2022/10/08 13:38:17;;;;;;;;;;;20.00;97.90;;;;;;7332140;19;108801;-74
2022/10/08 13:40:47;;;;;;;;;;;20.00;98.30;;;;;;7338407;19;110134;-74
2022/10/08 13:43:14;;;;;;;;;;;20.00;97.60;;;;;;7331104;19;108693;-74
2022/10/08 13:45:41;;;;;;;;;;;20.00;97.10;;;;;;7332487;19;109825;-74
2022/10/08 13:48:10;;;;;;;;;;;19.80;96.90;;;;;;7334737;19;110877;-73
2022/10/08 13:50:41;;;;;;;;;;;19.70;97.40;;;;;;7333965;19;109517;-74
2022/10/08 13:53:08;;;;;;;;;;;19.60;97.60;;;;;;7332781;19;108691;-74
2022/10/08 13:55:35;;;;;;;;;;;19.70;98.50;;;;;;7333929;19;113570;-74
2022/10/08 13:58:04;;;;;;;;;;;19.70;98.30;;;;;;7333757;19;108996;-73
2022/10/08 14:00:32;;;;;;;;;;;19.80;97.00;;;;;;7335170;19;109173;-74
2022/10/08 14:03:00;;;;;;;;;;;19.90;97.70;;;;;;7327210;19;111199;-74
2022/10/08 14:05:28;;;;;;;;;;;20.00;98.00;;;;;;7331624;19;109462;-74
2022/10/08 14:07:57;;;;;;;;;;;19.90;96.20;;;;;;7333595;19;110446;-74
2022/10/08 14:10:24;;;;;;;;;;;19.70;96.60;;;;;;7331723;19;108859;-74
2022/10/08 14:12:51;;;;;;;;;;;19.90;97.50;;;;;;7337159;19;111576;-74
2022/10/08 14:15:18;;;;;;;;;;;19.90;97.00;;;;;;7342401;19;108980;-74
2022/10/08 14:17:45;;;;;;;;;;;19.80;97.30;;;;;;7343727;19;108683;-75
2022/10/08 14:20:12;;;;;;;;;;;19.80;97.20;;;;;;7342476;19;108437;-74
2022/10/08 14:22:39;;;;;;;;;;;19.70;96.40;;;;;;7349936;19;109404;-74
2022/10/08 14:27:38;;;;;;;;;;;19.50;95.90;;;;;;7339129;19;109194;-73